createdAt,value
2022-10-13T00:01:08.998Z,100305.47
2022-10-13T00:03:38.453Z,100306.69
2022-10-13T00:06:07.625Z,100305.22
2022-10-13T00:08:35.431Z,100305.22
2022-10-13T00:11:10.985Z,100307.72
2022-10-13T00:13:40.427Z,100309.00
2022-10-13T00:16:07.878Z,100302.19
2022-10-13T00:18:37.559Z,100310.00
2022-10-13T00:21:10.518Z,100302.19
2022-10-13T00:23:38.271Z,100312.03
2022-10-13T00:26:09.776Z,100307.72
2022-10-13T00:28:37.189Z,100307.22
2022-10-13T00:31:14.062Z,100303.47
2022-10-13T00:33:41.190Z,100295.63
2022-10-13T00:36:08.281Z,100297.16
2022-10-13T00:38:36.089Z,100291.88
2022-10-13T00:41:03.933Z,100299.41
2022-10-13T00:43:54.916Z,100291.63
2022-10-13T00:46:24.163Z,100289.59
2022-10-13T00:49:06.934Z,100288.84
2022-10-13T00:51:39.659Z,100291.34
2022-10-13T00:54:09.615Z,100291.59
2022-10-13T00:56:38.737Z,100289.81
2022-10-13T00:59:12.089Z,100292.59
2022-10-13T01:01:44.032Z,100291.09
2022-10-13T01:04:11.606Z,100288.31
2022-10-13T01:06:38.581Z,100291.81
2022-10-13T01:09:10.636Z,100295.63
2022-10-13T01:11:40.746Z,100284.03
2022-10-13T01:14:14.961Z,100283.28
2022-10-13T01:17:03.829Z,100280.53
2022-10-13T01:19:57.450Z,100282.78
2022-10-13T01:22:45.889Z,100281.25
2022-10-13T01:25:41.291Z,100275.97
2022-10-13T01:28:33.146Z,100279.25
2022-10-13T01:31:12.826Z,100277.97
2022-10-13T01:33:50.586Z,100280.47
2022-10-13T01:36:59.232Z,100269.91
2022-10-13T01:39:45.374Z,100270.41
2022-10-13T01:42:20.262Z,100266.59
2022-10-13T01:44:52.442Z,100266.59
2022-10-13T01:47:20.788Z,100265.06
2022-10-13T01:49:52.126Z,100259.25
2022-10-13T01:52:22.197Z,100260.78
2022-10-13T01:54:51.291Z,100254.22
2022-10-13T01:57:33.232Z,100251.69
2022-10-13T02:00:02.527Z,100259.97
2022-10-13T02:02:48.810Z,100254.19
2022-10-13T02:05:15.922Z,100251.41
2022-10-13T02:08:02.364Z,100245.06
2022-10-13T02:10:40.499Z,100243.28
2022-10-13T02:13:13.811Z,100248.34
2022-10-13T02:15:46.047Z,100249.31
2022-10-13T02:18:17.193Z,100249.06
2022-10-13T02:20:45.954Z,100242.28
2022-10-13T02:23:15.405Z,100242.53
2022-10-13T02:25:43.048Z,100247.31
2022-10-13T02:28:11.242Z,100248.34
2022-10-13T02:30:43.819Z,100255.38
2022-10-13T02:33:12.204Z,100257.13
2022-10-13T02:35:39.431Z,100247.78
2022-10-13T02:38:08.962Z,100243.75
2022-10-13T02:40:36.439Z,100246.53
2022-10-13T02:43:03.917Z,100240.72
2022-10-13T02:45:30.865Z,100249.81
2022-10-13T02:47:58.397Z,100240.47
2022-10-13T02:50:27.602Z,100243.75
2022-10-13T02:52:56.880Z,100236.44
2022-10-13T02:55:24.077Z,100242.72
2022-10-13T02:57:56.755Z,100247.78
2022-10-13T03:00:23.733Z,100242.72
2022-10-13T03:02:50.851Z,100244.25
2022-10-13T03:05:20.138Z,100238.19
2022-10-13T03:07:47.313Z,100239.69
2022-10-13T03:10:14.403Z,100236.91
2022-10-13T03:12:41.490Z,100233.88
2022-10-13T03:15:08.794Z,100241.69
2022-10-13T03:17:38.301Z,100242.97
2022-10-13T03:20:11.442Z,100244.97
2022-10-13T03:22:38.599Z,100239.44
2022-10-13T03:25:06.314Z,100241.19
2022-10-13T03:27:33.252Z,100234.09
2022-10-13T03:30:00.329Z,100243.97
2022-10-13T03:32:27.260Z,100238.91
2022-10-13T03:34:56.904Z,100238.16
2022-10-13T03:37:24.059Z,100243.19
2022-10-13T03:39:51.002Z,100236.63
2022-10-13T03:42:18.554Z,100233.81
2022-10-13T03:44:52.368Z,100229.78
2022-10-13T03:47:22.270Z,100237.34
2022-10-13T03:49:49.460Z,100238.59
2022-10-13T03:52:16.542Z,100236.63
2022-10-13T03:54:43.608Z,100239.88
2022-10-13T03:57:10.627Z,100240.13
2022-10-13T03:59:40.204Z,100236.06
2022-10-13T04:02:10.042Z,100232.28
2022-10-13T04:04:38.341Z,100238.53
2022-10-13T04:07:07.510Z,100232.50
2022-10-13T04:09:34.522Z,100234.56
2022-10-13T04:12:01.714Z,100233.78
2022-10-13T04:14:28.745Z,100236.84
2022-10-13T04:17:01.156Z,100233.53
2022-10-13T04:19:28.432Z,100231.00
2022-10-13T04:21:55.389Z,100233.28
2022-10-13T04:24:22.343Z,100227.72
2022-10-13T04:26:49.495Z,100235.78
2022-10-13T04:29:18.711Z,100238.53
2022-10-13T04:31:47.139Z,100243.84
2022-10-13T04:34:14.267Z,100239.84
2022-10-13T04:36:41.200Z,100243.63
2022-10-13T04:39:08.137Z,100246.47
2022-10-13T04:41:35.511Z,100240.94
2022-10-13T04:44:02.723Z,100241.94
2022-10-13T04:46:29.917Z,100244.69
2022-10-13T04:48:57.105Z,100239.44
2022-10-13T04:51:31.635Z,100245.25
2022-10-13T04:54:06.065Z,100250.78
2022-10-13T04:56:33.687Z,100239.69
2022-10-13T04:59:05.318Z,100245.50
2022-10-13T05:01:36.051Z,100245.03
2022-10-13T05:04:06.880Z,100237.16
2022-10-13T05:06:53.395Z,100240.72
2022-10-13T05:09:25.343Z,100245.25
2022-10-13T05:11:54.929Z,100246.00
2022-10-13T05:14:22.984Z,100240.22
2022-10-13T05:16:50.196Z,100245.25
2022-10-13T05:19:17.333Z,100252.34
2022-10-13T05:21:44.627Z,100255.09
2022-10-13T05:24:13.781Z,100248.81
2022-10-13T05:26:40.991Z,100251.09
2022-10-13T05:29:08.800Z,100248.88
2022-10-13T05:31:36.421Z,100246.09
2022-10-13T05:34:03.633Z,100249.88
2022-10-13T05:36:33.080Z,100249.63
2022-10-13T05:39:05.451Z,100257.69
2022-10-13T05:41:32.792Z,100257.13
2022-10-13T05:44:06.514Z,100259.44
2022-10-13T05:46:34.160Z,100256.88
2022-10-13T05:49:03.865Z,100255.38
2022-10-13T05:51:38.386Z,100259.16
2022-10-13T05:54:23.097Z,100258.88
2022-10-13T05:56:57.596Z,100258.88
2022-10-13T05:59:27.548Z,100260.13
2022-10-13T06:01:55.469Z,100262.63
2022-10-13T06:04:30.602Z,100255.31
2022-10-13T06:06:57.961Z,100263.16
2022-10-13T06:09:24.834Z,100266.19
2022-10-13T06:11:51.994Z,100269.19
2022-10-13T06:14:20.391Z,100274.75
2022-10-13T06:16:47.333Z,100270.16
2022-10-13T06:19:14.487Z,100264.63
2022-10-13T06:21:41.565Z,100274.19
2022-10-13T06:24:09.254Z,100272.41
2022-10-13T06:26:37.021Z,100272.91
2022-10-13T06:29:04.300Z,100270.13
2022-10-13T06:31:32.099Z,100263.81
2022-10-13T06:33:59.640Z,100271.09
2022-10-13T06:36:26.868Z,100272.88
2022-10-13T06:38:54.576Z,100277.91
2022-10-13T06:41:22.498Z,100274.84
2022-10-13T06:43:49.999Z,100277.88
2022-10-13T06:46:17.257Z,100277.63
2022-10-13T06:48:44.568Z,100271.28
2022-10-13T06:51:12.904Z,100283.16
2022-10-13T06:53:42.456Z,100274.28
2022-10-13T06:56:09.925Z,100269.69
2022-10-13T06:58:38.089Z,100268.19
2022-10-13T07:01:06.276Z,100269.16
2022-10-13T07:03:34.032Z,100274.94
2022-10-13T07:06:02.736Z,100267.06
2022-10-13T07:08:31.221Z,100268.03
2022-10-13T07:10:58.886Z,100264.22
2022-10-13T07:13:26.215Z,100274.25
2022-10-13T07:15:53.188Z,100263.91
2022-10-13T07:18:20.113Z,100274.78
2022-10-13T07:20:47.271Z,100269.97
2022-10-13T07:23:14.326Z,100270.72
2022-10-13T07:25:43.722Z,100271.47
2022-10-13T07:28:10.866Z,100272.94
2022-10-13T07:30:40.120Z,100271.63
2022-10-13T07:33:07.099Z,100270.03
2022-10-13T07:35:34.781Z,100266.19
2022-10-13T07:38:01.992Z,100258.00
2022-10-13T07:40:29.197Z,100255.38
2022-10-13T07:42:57.371Z,100269.22
2022-10-13T07:45:24.933Z,100257.75
2022-10-13T07:47:51.955Z,100262.25
2022-10-13T07:50:19.116Z,100264.59
2022-10-13T07:52:46.339Z,100265.13
2022-10-13T07:55:13.323Z,100261.63
2022-10-13T07:57:40.551Z,100271.53
2022-10-13T08:00:08.615Z,100270.50
2022-10-13T08:02:44.195Z,100275.28
2022-10-13T08:05:11.321Z,100269.06
2022-10-13T08:07:39.348Z,100271.00
2022-10-13T08:10:07.196Z,100274.19
2022-10-13T08:12:35.971Z,100258.44
2022-10-13T08:15:06.329Z,100269.19
2022-10-13T08:17:34.043Z,100271.75
2022-10-13T08:20:00.914Z,100265.44
2022-10-13T08:22:30.360Z,100267.69
2022-10-13T08:24:57.305Z,100258.59
2022-10-13T08:27:32.756Z,100266.19
2022-10-13T08:30:13.496Z,100258.41
2022-10-13T08:32:43.102Z,100254.88
2022-10-13T08:35:10.602Z,100256.09
2022-10-13T08:37:37.676Z,100263.63
2022-10-13T08:40:05.219Z,100258.66
2022-10-13T08:42:32.598Z,100266.41
2022-10-13T08:48:00.599Z,100266.69
2022-10-13T08:50:31.951Z,100273.31
2022-10-13T08:53:07.571Z,100275.81
2022-10-13T08:55:34.771Z,100269.47
2022-10-13T08:58:06.774Z,100272.06
2022-10-13T09:00:33.690Z,100269.66
2022-10-13T09:03:28.553Z,100265.50
2022-10-13T09:06:15.509Z,100267.34
2022-10-13T09:08:53.736Z,100269.75
2022-10-13T09:11:21.285Z,100266.34
2022-10-13T09:13:48.925Z,100265.41
2022-10-13T09:16:15.843Z,100273.38
2022-10-13T09:18:43.092Z,100264.91
2022-10-13T09:21:21.427Z,100266.66
2022-10-13T09:23:50.613Z,100265.53
2022-10-13T09:26:26.032Z,100256.34
2022-10-13T09:28:55.787Z,100255.41
2022-10-13T09:31:29.064Z,100256.88
2022-10-13T09:34:23.129Z,100254.34
2022-10-13T09:37:04.074Z,100258.66
2022-10-13T09:39:32.888Z,100259.09
2022-10-13T09:42:20.545Z,100253.63
2022-10-13T09:44:56.649Z,100254.91
2022-10-13T09:47:26.774Z,100248.91
2022-10-13T09:50:16.646Z,100250.22
2022-10-13T09:52:45.876Z,100251.47
2022-10-13T09:55:35.049Z,100246.97
2022-10-13T09:58:14.857Z,100255.66
2022-10-13T10:00:42.734Z,100252.66
2022-10-13T10:03:20.529Z,100249.66
2022-10-13T10:05:59.959Z,100243.84
2022-10-13T10:09:04.680Z,100244.63
2022-10-13T10:11:39.926Z,100250.72
2022-10-13T10:14:24.253Z,100244.72
2022-10-13T10:17:10.091Z,100250.72
2022-10-13T10:19:52.435Z,100254.97
2022-10-13T10:22:31.063Z,100248.38
2022-10-13T10:25:30.245Z,100246.78
2022-10-13T10:28:13.875Z,100247.63
2022-10-13T10:31:08.881Z,100244.72
2022-10-13T10:33:35.988Z,100238.59
2022-10-13T10:36:16.913Z,100243.53
2022-10-13T10:39:09.828Z,100248.38
2022-10-13T10:42:15.268Z,100240.66
2022-10-13T10:44:48.190Z,100244.81
2022-10-13T10:47:25.626Z,100236.66
2022-10-13T10:50:05.899Z,100231.84
2022-10-13T10:52:48.005Z,100232.38
2022-10-13T10:55:31.770Z,100232.88
2022-10-13T10:58:23.981Z,100229.88
2022-10-13T11:01:05.792Z,100224.50
2022-10-13T11:03:54.897Z,100224.88
2022-10-13T11:06:26.413Z,100220.78
2022-10-13T11:08:56.610Z,100228.50
2022-10-13T11:11:26.743Z,100223.13
2022-10-13T11:13:58.621Z,100217.88
2022-10-13T11:16:29.363Z,100217.81
2022-10-13T11:19:19.046Z,100216.47
2022-10-13T11:21:55.309Z,100204.88
2022-10-13T11:24:34.893Z,100202.28
2022-10-13T11:27:08.379Z,100206.06
2022-10-13T11:29:44.657Z,100203.13
2022-10-13T11:32:26.843Z,100199.16
2022-10-13T11:34:59.019Z,100190.69
2022-10-13T11:38:05.920Z,100182.53
2022-10-13T11:40:54.309Z,100190.13
2022-10-13T11:43:21.406Z,100183.91
2022-10-13T11:45:57.986Z,100172.56
2022-10-13T11:48:31.088Z,100167.59
2022-10-13T11:51:08.823Z,100163.72
2022-10-13T11:53:49.501Z,100162.13
2022-10-13T11:56:23.103Z,100154.78
2022-10-13T11:58:50.253Z,100148.88
2022-10-13T12:01:19.924Z,100147.19
2022-10-13T12:03:48.654Z,100145.06
2022-10-13T12:06:34.078Z,100140.88
2022-10-13T12:09:14.957Z,100140.03
2022-10-13T12:11:42.195Z,100127.63
2022-10-13T12:14:24.341Z,100125.00
2022-10-13T12:16:59.227Z,100123.91
2022-10-13T12:19:28.728Z,100125.69
2022-10-13T12:21:59.064Z,100115.13
2022-10-13T12:24:30.880Z,100120.78
2022-10-13T12:26:58.943Z,100126.06
2022-10-13T12:29:30.239Z,100117.22
2022-10-13T12:32:03.321Z,100108.69
2022-10-13T12:34:33.399Z,100108.50
2022-10-13T12:37:08.215Z,100112.88
2022-10-13T12:39:36.847Z,100118.53
2022-10-13T12:42:06.771Z,100113.41
2022-10-13T12:44:38.336Z,100107.00
2022-10-13T12:47:05.596Z,100114.63
2022-10-13T12:49:35.708Z,100108.25
2022-10-13T12:52:14.871Z,100103.09
2022-10-13T12:54:54.472Z,100110.09
2022-10-13T12:57:38.237Z,100113.22
2022-10-13T13:00:26.803Z,100105.78
2022-10-13T13:03:00.979Z,100100.19
2022-10-13T13:05:50.809Z,100100.81
2022-10-13T13:08:29.796Z,100096.34
2022-10-13T13:10:57.449Z,100090.41
2022-10-13T13:13:25.307Z,100096.78
2022-10-13T13:15:52.559Z,100087.31
2022-10-13T13:18:42.271Z,100095.38
2022-10-13T13:21:12.663Z,100085.78
2022-10-13T13:23:51.147Z,100081.75
2022-10-13T13:26:24.408Z,100077.81
2022-10-13T13:28:58.840Z,100073.69
2022-10-13T13:31:26.474Z,100075.56
2022-10-13T13:33:53.851Z,100078.41
2022-10-13T13:36:28.263Z,100078.41
2022-10-13T13:38:55.561Z,100079.03
2022-10-13T13:41:22.930Z,100076.66
2022-10-13T13:43:52.360Z,100078.06
2022-10-13T13:46:19.388Z,100067.19
2022-10-13T13:48:46.542Z,100059.59
2022-10-13T13:51:14.091Z,100060.16
2022-10-13T13:53:41.301Z,100062.75
2022-10-13T13:56:18.684Z,100063.09
2022-10-13T13:58:46.392Z,100063.03
2022-10-13T14:01:14.234Z,100057.81
2022-10-13T14:03:46.230Z,100058.88
2022-10-13T14:06:20.830Z,100062.63
2022-10-13T14:08:52.520Z,100059.69
2022-10-13T14:11:19.990Z,100055.59
2022-10-13T14:13:47.009Z,100062.00
2022-10-13T14:16:24.537Z,100054.63
2022-10-13T14:18:51.503Z,100053.88
2022-10-13T14:21:18.425Z,100050.53
2022-10-13T14:23:46.955Z,100048.28
2022-10-13T14:26:14.598Z,100038.97
2022-10-13T14:28:43.661Z,100033.00
2022-10-13T14:31:11.268Z,100026.66
2022-10-13T14:33:41.430Z,100020.84
2022-10-13T14:36:09.061Z,100018.81
2022-10-13T14:38:36.210Z,100014.28
2022-10-13T14:41:04.695Z,100019.09
2022-10-13T14:43:32.029Z,100019.22
2022-10-13T14:46:04.104Z,100011.38
2022-10-13T14:48:32.011Z,100019.78
2022-10-13T14:50:59.166Z,100016.41
2022-10-13T14:53:28.402Z,100019.88
2022-10-13T14:55:55.562Z,100008.19
2022-10-13T14:58:22.959Z,100013.13
2022-10-13T15:00:50.078Z,100015.00
2022-10-13T15:03:21.944Z,100013.56
2022-10-13T15:05:49.333Z,100011.13
2022-10-13T15:08:17.783Z,100009.81
2022-10-13T15:10:45.331Z,100014.25
2022-10-13T15:13:12.624Z,100015.88
2022-10-13T15:15:46.753Z,100011.94
2022-10-13T15:18:14.015Z,100008.53
2022-10-13T15:20:46.498Z,100004.78
2022-10-13T15:23:15.635Z,100003.28
2022-10-13T15:25:56.329Z,100003.63
2022-10-13T15:28:25.129Z,99999.44
2022-10-13T15:30:55.276Z,99998.50
2022-10-13T15:33:24.516Z,99993.38
2022-10-13T15:35:53.443Z,99998.84
2022-10-13T15:38:23.296Z,99990.00
2022-10-13T15:40:50.450Z,99987.25
2022-10-13T15:43:18.528Z,99983.41
2022-10-13T15:45:57.322Z,99979.56
2022-10-13T15:48:24.655Z,99986.66
2022-10-13T15:50:52.134Z,99990.97
2022-10-13T15:53:20.251Z,99985.38
2022-10-13T15:55:48.508Z,99991.50
2022-10-13T15:58:16.302Z,99981.09
2022-10-13T16:00:43.597Z,99976.56
2022-10-13T16:03:18.255Z,99970.09
2022-10-13T16:05:46.654Z,99977.97
2022-10-13T16:08:14.666Z,99970.09
2022-10-13T16:10:42.990Z,99975.94
2022-10-13T16:13:13.471Z,99975.44
2022-10-13T16:15:41.646Z,99971.31
2022-10-13T16:18:08.760Z,99972.00
2022-10-13T16:20:37.910Z,99972.13
2022-10-13T16:23:05.355Z,99974.28
2022-10-13T16:25:35.253Z,99969.63
2022-10-13T16:28:02.241Z,99971.97
2022-10-13T16:30:30.554Z,99973.09
2022-10-13T16:32:58.160Z,99968.66
2022-10-13T16:35:25.437Z,99978.59
2022-10-13T16:37:52.355Z,99974.88
2022-10-13T16:40:19.546Z,99971.97
2022-10-13T16:42:46.514Z,99974.53
2022-10-13T16:45:13.861Z,99978.66
2022-10-13T16:47:40.812Z,99969.91
2022-10-13T16:50:09.972Z,99973.25
2022-10-13T16:52:37.954Z,99973.06
2022-10-13T16:55:06.160Z,99973.34
2022-10-13T16:57:33.396Z,99969.84
2022-10-13T17:00:01.081Z,99970.91
2022-10-13T17:02:50.402Z,99968.94
2022-10-13T17:05:17.868Z,99968.44
2022-10-13T17:07:45.066Z,99976.50
2022-10-13T17:10:12.273Z,99979.84
2022-10-13T17:12:39.561Z,99975.09
2022-10-13T17:15:07.959Z,99969.06
2022-10-13T17:17:35.368Z,99971.38
2022-10-13T17:20:04.132Z,99969.84
2022-10-13T17:22:31.786Z,99974.91
2022-10-13T17:24:59.521Z,99976.19
2022-10-13T17:27:27.022Z,99973.25
2022-10-13T17:29:55.097Z,99964.19
2022-10-13T17:32:23.058Z,99978.81
2022-10-13T17:34:50.961Z,99981.09
2022-10-13T17:37:19.234Z,99974.09
2022-10-13T17:39:49.098Z,99985.44
2022-10-13T17:42:18.341Z,99980.41
2022-10-13T17:44:49.993Z,99978.69
2022-10-13T17:47:18.478Z,99970.66
2022-10-13T17:49:49.154Z,99964.63
2022-10-13T17:52:19.471Z,99969.66
2022-10-13T17:54:48.544Z,99964.16
2022-10-13T17:57:17.285Z,99968.69
2022-10-13T17:59:46.265Z,99964.41
2022-10-13T18:02:14.677Z,99965.16
2022-10-13T18:04:42.699Z,99959.38
2022-10-13T18:07:11.352Z,99961.94
2022-10-13T18:09:39.432Z,99959.44
2022-10-13T18:12:07.312Z,99960.69
2022-10-13T18:14:38.069Z,99952.91
2022-10-13T18:17:08.406Z,99952.66
2022-10-13T18:19:40.130Z,99955.16
2022-10-13T18:22:08.850Z,99959.19
2022-10-13T18:24:38.104Z,99955.69
2022-10-13T18:27:05.948Z,99954.91
2022-10-13T18:29:36.597Z,99959.69
2022-10-13T18:32:04.957Z,99965.22
2022-10-13T18:34:34.796Z,99965.50
2022-10-13T18:37:07.098Z,99961.22
2022-10-13T18:39:35.897Z,99953.16
2022-10-13T18:42:04.187Z,99953.94
2022-10-13T18:44:35.998Z,99968.00
2022-10-13T18:47:04.202Z,99958.94
2022-10-13T18:49:32.334Z,99968.47
2022-10-13T18:52:02.698Z,99964.97
2022-10-13T18:54:32.922Z,99969.22
2022-10-13T18:57:01.578Z,99962.41
2022-10-13T18:59:30.354Z,99961.69
2022-10-13T19:02:02.759Z,99958.88
2022-10-13T19:04:30.520Z,99954.09
2022-10-13T19:06:59.974Z,99956.09
2022-10-13T19:09:28.385Z,99951.84
2022-10-13T19:12:00.135Z,99954.31
2022-10-13T19:14:28.827Z,99953.56
2022-10-13T19:17:01.613Z,99953.03
2022-10-13T19:19:32.672Z,99959.56
2022-10-13T19:22:01.718Z,99961.81
2022-10-13T19:24:31.112Z,99961.81
2022-10-13T19:26:59.506Z,99959.56
2022-10-13T19:29:31.648Z,99956.75
2022-10-13T19:32:01.090Z,99956.47
2022-10-13T19:34:30.975Z,99951.16
2022-10-13T19:37:00.862Z,99947.66
2022-10-13T19:39:29.070Z,99950.41
2022-10-13T19:41:58.671Z,99940.63
2022-10-13T19:44:29.621Z,99940.38
2022-10-13T19:46:57.987Z,99943.13
2022-10-13T19:49:29.096Z,99939.13
2022-10-13T19:52:00.175Z,99939.84
2022-10-13T19:54:33.659Z,99935.34
2022-10-13T19:57:05.754Z,99932.34
2022-10-13T19:59:33.417Z,99924.56
2022-10-13T20:02:01.109Z,99930.59
2022-10-13T20:04:29.461Z,99922.06
2022-10-13T20:06:57.038Z,99926.84
2022-10-13T20:09:27.827Z,99925.34
2022-10-13T20:11:58.373Z,99933.13
2022-10-13T20:14:26.430Z,99933.13
2022-10-13T20:16:56.495Z,99934.88
2022-10-13T20:19:24.209Z,99935.63
2022-10-13T20:21:52.970Z,99932.34
2022-10-13T20:24:21.703Z,99929.56
2022-10-13T20:26:49.399Z,99931.63
2022-10-13T20:29:21.620Z,99930.38
2022-10-13T20:31:50.906Z,99940.66
2022-10-13T20:34:17.882Z,99940.44
2022-10-13T20:36:45.200Z,99929.38
2022-10-13T20:39:12.088Z,99934.91
2022-10-13T20:41:39.069Z,99928.88
2022-10-13T20:44:06.365Z,99931.66
2022-10-13T20:46:33.652Z,99927.88
2022-10-13T20:49:15.811Z,99931.94
2022-10-13T20:51:45.882Z,99932.41
2022-10-13T20:54:14.975Z,99925.09
2022-10-13T20:56:42.859Z,99924.13
2022-10-13T20:59:12.778Z,99927.16
2022-10-13T21:01:39.699Z,99930.19
2022-10-13T21:04:08.481Z,99928.66
2022-10-13T21:06:36.118Z,99922.38
2022-10-13T21:09:04.677Z,99918.63
2022-10-13T21:11:34.144Z,99916.38
2022-10-13T21:14:06.585Z,99921.66
2022-10-13T21:16:34.942Z,99909.59
2022-10-13T21:19:03.316Z,99912.88
2022-10-13T21:21:32.700Z,99914.16
2022-10-13T21:24:02.776Z,99906.38
2022-10-13T21:26:32.153Z,99905.84
2022-10-13T21:29:02.455Z,99903.09
2022-10-13T21:31:30.835Z,99898.06
2022-10-13T21:34:00.910Z,99895.06
2022-10-13T21:36:30.157Z,99892.81
2022-10-13T21:38:59.787Z,99906.13
2022-10-13T21:41:28.317Z,99901.09
2022-10-13T21:43:55.684Z,99904.84
2022-10-13T21:46:28.893Z,99906.63
2022-10-13T21:48:58.871Z,99909.91
2022-10-13T21:51:29.601Z,99903.88
2022-10-13T21:54:03.924Z,99908.66
2022-10-13T21:56:32.078Z,99899.38
2022-10-13T21:59:00.332Z,99894.06
2022-10-13T22:01:30.169Z,99899.88
2022-10-13T22:04:00.952Z,99899.66
2022-10-13T22:06:29.658Z,99892.34
2022-10-13T22:08:58.948Z,99884.81
2022-10-13T22:11:29.240Z,99887.28
2022-10-13T22:13:57.577Z,99892.34
2022-10-13T22:16:28.481Z,99875.75
2022-10-13T22:18:57.072Z,99879.03
2022-10-13T22:21:27.030Z,99878.06
2022-10-13T22:23:59.242Z,99874.50
2022-10-13T22:26:28.137Z,99885.81
2022-10-13T22:28:57.304Z,99870.47
2022-10-13T22:31:24.548Z,99877.81
2022-10-13T22:33:55.309Z,99880.31
2022-10-13T22:36:24.203Z,99874.81
2022-10-13T22:38:53.158Z,99874.81
2022-10-13T22:41:20.807Z,99878.34
2022-10-13T22:43:55.755Z,99881.59
2022-10-13T22:46:28.328Z,99869.28
2022-10-13T22:48:56.717Z,99874.81
2022-10-13T22:51:26.151Z,99872.84
2022-10-13T22:53:53.305Z,99868.78
2022-10-13T22:56:29.238Z,99877.09
2022-10-13T22:59:22.604Z,99876.09
2022-10-13T23:01:49.986Z,99871.28
2022-10-13T23:04:20.149Z,99869.28
2022-10-13T23:06:47.129Z,99874.06
2022-10-13T23:09:14.384Z,99864.03
2022-10-13T23:11:41.553Z,99868.78
2022-10-13T23:14:13.479Z,99866.03
2022-10-13T23:16:43.369Z,99859.75
2022-10-13T23:19:12.256Z,99860.25
2022-10-13T23:21:39.917Z,99863.50
2022-10-13T23:24:08.443Z,99861.25
2022-10-13T23:26:35.619Z,99864.53
2022-10-13T23:29:04.728Z,99866.53
2022-10-13T23:31:31.893Z,99854.72
2022-10-13T23:34:01.296Z,99860.75
2022-10-13T23:36:30.603Z,99857.75
2022-10-13T23:39:01.171Z,99858.25
2022-10-13T23:41:29.729Z,99861.00
2022-10-13T23:43:56.999Z,99857.53
2022-10-13T23:46:24.327Z,99853.25
2022-10-13T23:48:52.710Z,99856.53
2022-10-13T23:51:22.308Z,99852.75
2022-10-13T23:53:49.807Z,99853.22
2022-10-13T23:56:18.118Z,99854.22
2022-10-13T23:58:48.256Z,99859.00
